createdAt,value
2018-10-19T00:01:15.634Z,95.36
2018-10-19T00:03:44.204Z,95.87
2018-10-19T00:06:12.845Z,95.81
2018-10-19T00:08:41.504Z,95.52
2018-10-19T00:11:10.134Z,94.56
2018-10-19T00:13:38.732Z,94.70
2018-10-19T00:16:07.437Z,94.47
2018-10-19T00:18:36.062Z,94.83
2018-10-19T00:21:04.694Z,94.48
2018-10-19T00:23:33.301Z,94.07
2018-10-19T00:26:01.852Z,93.64
2018-10-19T00:28:30.457Z,93.91
2018-10-19T00:30:59.099Z,95.03
2018-10-19T00:33:27.705Z,94.79
2018-10-19T00:35:56.235Z,94.82
2018-10-19T00:38:24.856Z,94.30
2018-10-19T00:40:53.425Z,94.55
2018-10-19T00:43:21.961Z,94.52
2018-10-19T00:45:50.553Z,94.03
2018-10-19T00:48:20.332Z,94.68
2018-10-19T00:50:48.944Z,95.00
2018-10-19T00:53:17.601Z,95.90
2018-10-19T00:55:46.339Z,96.00
2018-10-19T00:58:14.881Z,96.08
2018-10-19T01:00:43.806Z,95.80
2018-10-19T01:03:12.406Z,95.87
2018-10-19T01:05:41.508Z,96.08
2018-10-19T01:08:10.689Z,95.25
2018-10-19T01:10:39.260Z,95.00
2018-10-19T01:13:07.972Z,95.58
2018-10-19T01:15:36.492Z,95.44
2018-10-19T01:18:05.360Z,95.02
2018-10-19T01:20:34.017Z,95.37
2018-10-19T01:23:02.633Z,95.20
2018-10-19T01:25:31.244Z,94.87
2018-10-19T01:27:59.796Z,94.78
2018-10-19T01:30:28.494Z,94.64
2018-10-19T01:32:57.291Z,95.81
2018-10-19T01:35:26.013Z,95.18
2018-10-19T01:37:54.545Z,95.32
2018-10-19T01:40:23.207Z,94.73
2018-10-19T01:42:51.761Z,94.15
2018-10-19T01:45:20.376Z,94.68
2018-10-19T01:47:48.971Z,94.81
2018-10-19T01:50:17.531Z,95.29
2018-10-19T01:52:46.136Z,95.35
2018-10-19T01:55:14.992Z,94.45
2018-10-19T01:57:43.669Z,94.69
2018-10-19T02:00:12.301Z,95.25
2018-10-19T02:02:40.840Z,95.44
2018-10-19T02:05:09.502Z,96.84
2018-10-19T02:07:38.024Z,96.58
2018-10-19T02:10:07.468Z,96.48
2018-10-19T02:12:36.013Z,96.05
2018-10-19T02:15:04.745Z,95.65
2018-10-19T02:17:33.328Z,95.82
2018-10-19T02:20:01.882Z,95.70
2018-10-19T02:22:30.508Z,95.13
2018-10-19T02:24:59.148Z,95.20
2018-10-19T02:27:27.716Z,95.12
2018-10-19T02:29:56.227Z,94.85
2018-10-19T02:32:24.837Z,95.65
2018-10-19T02:34:53.390Z,95.07
2018-10-19T02:37:21.988Z,94.28
2018-10-19T02:39:50.557Z,95.16
2018-10-19T02:42:19.208Z,95.24
2018-10-19T02:44:47.773Z,94.33
2018-10-19T02:47:16.542Z,93.99
2018-10-19T02:49:45.137Z,94.04
2018-10-19T02:52:13.656Z,93.43
2018-10-19T02:54:42.304Z,93.43
2018-10-19T02:57:10.839Z,93.47
2018-10-19T02:59:39.357Z,94.34
2018-10-19T03:02:08.123Z,93.55
2018-10-19T03:04:36.770Z,93.43
2018-10-19T03:07:06.024Z,92.98
2018-10-19T03:09:34.593Z,93.26
2018-10-19T03:12:03.200Z,93.02
2018-10-19T03:14:31.749Z,93.21
2018-10-19T03:17:00.535Z,94.39
2018-10-19T03:19:29.040Z,94.94
2018-10-19T03:21:57.629Z,94.72
2018-10-19T03:24:26.185Z,95.54
2018-10-19T03:26:54.749Z,95.01
2018-10-19T03:29:23.328Z,95.79
2018-10-19T03:31:51.894Z,95.16
2018-10-19T03:34:20.553Z,95.38
2018-10-19T03:36:49.129Z,96.70
2018-10-19T03:39:18.387Z,96.01
2018-10-19T03:41:46.928Z,96.16
2018-10-19T03:44:15.565Z,96.63
2018-10-19T03:46:44.188Z,96.09
2018-10-19T03:49:12.823Z,95.80
2018-10-19T03:51:41.446Z,95.39
2018-10-19T03:54:10.081Z,95.59
2018-10-19T03:56:38.616Z,96.45
2018-10-19T03:59:07.246Z,95.82
2018-10-19T04:01:35.968Z,96.50
2018-10-19T04:04:04.938Z,96.59
2018-10-19T04:06:33.558Z,96.30
2018-10-19T04:09:02.523Z,96.07
2018-10-19T04:11:31.129Z,96.14
2018-10-19T04:13:59.708Z,95.86
2018-10-19T04:16:28.352Z,95.88
2018-10-19T04:18:57.000Z,95.75
2018-10-19T04:21:25.581Z,95.42
2018-10-19T04:23:54.254Z,95.06
2018-10-19T04:26:22.913Z,95.56
2018-10-19T04:28:51.529Z,95.01
2018-10-19T04:31:20.200Z,95.99
2018-10-19T04:33:48.808Z,95.51
2018-10-19T04:36:17.313Z,95.81
2018-10-19T04:38:45.912Z,96.26
2018-10-19T04:41:14.672Z,96.31
2018-10-19T04:43:43.148Z,96.60
2018-10-19T04:46:11.968Z,96.97
2018-10-19T04:48:40.550Z,96.35
2018-10-19T04:51:09.187Z,96.23
2018-10-19T04:53:37.834Z,95.49
2018-10-19T04:56:06.705Z,95.76
2018-10-19T04:58:35.525Z,95.12
2018-10-19T05:01:04.241Z,95.22
2018-10-19T05:03:32.761Z,95.71
2018-10-19T05:06:01.468Z,95.82
2018-10-19T05:08:29.982Z,95.62
2018-10-19T05:10:58.612Z,95.06
2018-10-19T05:13:27.161Z,95.62
2018-10-19T05:15:55.773Z,95.31
2018-10-19T05:18:24.337Z,95.35
2018-10-19T05:20:52.940Z,95.68
2018-10-19T05:23:21.513Z,95.56
2018-10-19T05:25:50.193Z,95.49
2018-10-19T05:28:18.741Z,93.75
2018-10-19T05:30:47.356Z,93.35
2018-10-19T05:33:16.021Z,93.82
2018-10-19T05:35:44.578Z,93.59
2018-10-19T05:38:13.158Z,94.50
2018-10-19T05:40:41.676Z,91.92
2018-10-19T05:43:10.332Z,89.87
2018-10-19T05:45:39.046Z,91.28
2018-10-19T05:48:07.612Z,92.43
2018-10-19T05:50:39.130Z,92.94
2018-10-19T05:53:10.211Z,92.74
2018-10-19T05:55:38.730Z,93.29
2018-10-19T05:58:07.317Z,93.01
2018-10-19T06:00:36.061Z,93.57
2018-10-19T06:03:04.896Z,93.59
2018-10-19T06:05:33.512Z,93.16
2018-10-19T06:08:02.110Z,93.53
2018-10-19T06:10:30.884Z,94.28
2018-10-19T06:12:59.525Z,93.99
2018-10-19T06:15:34.491Z,93.22
2018-10-19T06:18:03.136Z,92.99
2018-10-19T06:20:34.273Z,93.79
2018-10-19T06:23:04.789Z,93.30
2018-10-19T06:25:40.323Z,93.21
2018-10-19T06:28:08.920Z,94.22
2018-10-19T06:30:37.556Z,93.85
2018-10-19T06:33:06.152Z,94.13
2018-10-19T06:35:34.697Z,93.64
2018-10-19T06:38:03.328Z,94.43
2018-10-19T06:40:31.950Z,93.94
2018-10-19T06:43:00.604Z,93.40
2018-10-19T06:45:29.348Z,92.90
2018-10-19T06:47:58.056Z,93.54
2018-10-19T06:50:26.589Z,93.54
2018-10-19T06:52:55.149Z,93.46
2018-10-19T06:55:23.766Z,92.78
2018-10-19T06:57:52.344Z,92.65
2018-10-19T07:00:20.941Z,92.75
2018-10-19T07:02:49.786Z,92.67
2018-10-19T07:05:18.329Z,92.29
2018-10-19T07:07:46.951Z,92.87
2018-10-19T07:10:15.592Z,91.50
2018-10-19T07:12:44.247Z,90.93
2018-10-19T07:15:13.338Z,91.12
2018-10-19T07:17:41.980Z,91.70
2018-10-19T07:20:11.537Z,91.77
2018-10-19T07:22:40.500Z,91.03
2018-10-19T07:25:09.564Z,91.42
2018-10-19T07:27:38.281Z,90.09
2018-10-19T07:30:07.378Z,90.58
2018-10-19T07:32:36.009Z,89.99
2018-10-19T07:35:04.949Z,89.76
2018-10-19T07:37:33.673Z,90.06
2018-10-19T07:40:02.373Z,89.95
2018-10-19T07:42:31.079Z,89.51
2018-10-19T07:44:59.769Z,88.96
2018-10-19T07:47:28.463Z,88.14
2018-10-19T07:49:57.379Z,88.54
2018-10-19T07:52:26.021Z,87.70
2018-10-19T07:54:54.553Z,87.30
2018-10-19T07:57:23.280Z,84.82
2018-10-19T07:59:51.916Z,83.73
2018-10-19T08:02:20.504Z,84.54
2018-10-19T08:04:49.124Z,84.45
2018-10-19T08:07:17.845Z,83.94
2018-10-19T08:09:46.426Z,84.21
2018-10-19T08:12:15.100Z,83.71
2018-10-19T08:14:43.802Z,81.53
2018-10-19T08:17:12.464Z,82.82
2018-10-19T08:19:40.972Z,83.05
2018-10-19T08:22:09.889Z,83.41
2018-10-19T08:24:38.488Z,83.64
2018-10-19T08:27:07.075Z,83.45
2018-10-19T08:29:35.944Z,83.75
2018-10-19T08:32:04.683Z,83.21
2018-10-19T08:34:33.213Z,83.17
2018-10-19T08:37:01.900Z,83.70
2018-10-19T08:39:30.509Z,83.27
2018-10-19T08:41:59.165Z,82.36
2018-10-19T08:44:27.769Z,81.36
2018-10-19T08:46:56.384Z,81.41
2018-10-19T08:49:24.948Z,80.60
2018-10-19T08:51:53.606Z,79.77
2018-10-19T08:54:22.425Z,79.16
2018-10-19T08:56:50.957Z,78.45
2018-10-19T08:59:19.656Z,78.51
2018-10-19T09:01:48.393Z,77.83
2018-10-19T09:04:17.050Z,78.12
2018-10-19T09:06:45.888Z,77.07
2018-10-19T09:09:14.669Z,77.02
2018-10-19T09:11:43.348Z,77.78
2018-10-19T09:14:22.948Z,77.15
2018-10-19T09:16:51.492Z,77.20
2018-10-19T09:19:20.100Z,76.56
2018-10-19T09:21:48.845Z,75.92
2018-10-19T09:24:17.517Z,76.16
2018-10-19T09:26:46.094Z,76.14
2018-10-19T09:29:15.711Z,75.10
2018-10-19T09:31:44.321Z,75.16
2018-10-19T09:34:13.126Z,74.59
2018-10-19T09:36:42.003Z,75.15
2018-10-19T09:39:14.490Z,74.96
2018-10-19T09:41:43.824Z,74.74
2018-10-19T09:44:12.433Z,74.62
2018-10-19T09:46:41.861Z,73.56
2018-10-19T09:49:13.001Z,74.21
2018-10-19T09:51:42.221Z,73.45
2018-10-19T09:54:11.914Z,73.69
2018-10-19T09:56:40.786Z,73.10
2018-10-19T09:59:09.468Z,74.06
2018-10-19T10:01:39.053Z,72.93
2018-10-19T10:04:07.885Z,72.69
2018-10-19T10:06:36.546Z,73.55
2018-10-19T10:09:08.691Z,73.43
2018-10-19T10:11:37.231Z,73.11
2018-10-19T10:14:06.581Z,72.76
2018-10-19T10:16:35.573Z,72.56
2018-10-19T10:19:04.379Z,72.29
2018-10-19T10:21:33.060Z,71.98
2018-10-19T10:24:01.778Z,71.88
2018-10-19T10:26:30.323Z,72.14
2018-10-19T10:28:58.964Z,72.32
2018-10-19T10:31:27.861Z,71.98
2018-10-19T10:33:56.452Z,70.71
2018-10-19T10:36:25.097Z,70.76
2018-10-19T10:38:53.939Z,71.48
2018-10-19T10:41:22.524Z,70.09
2018-10-19T10:43:51.277Z,69.56
2018-10-19T10:46:20.067Z,70.10
2018-10-19T10:48:48.624Z,68.82
2018-10-19T10:51:17.233Z,69.67
2018-10-19T10:53:46.152Z,69.28
2018-10-19T10:56:14.904Z,69.32
2018-10-19T10:58:43.694Z,68.70
2018-10-19T11:01:12.424Z,68.72
2018-10-19T11:03:41.025Z,69.14
2018-10-19T11:06:09.556Z,68.94
2018-10-19T11:08:38.196Z,68.12
2018-10-19T11:11:12.956Z,67.73
2018-10-19T11:13:42.722Z,67.29
2018-10-19T11:16:12.544Z,68.36
2018-10-19T11:18:41.404Z,67.17
2018-10-19T11:21:10.611Z,68.09
2018-10-19T11:23:39.225Z,67.22
2018-10-19T11:26:07.903Z,66.13
2018-10-19T11:28:36.545Z,66.18
2018-10-19T11:31:05.555Z,67.06
2018-10-19T11:33:34.119Z,66.71
2018-10-19T11:36:02.684Z,66.79
2018-10-19T11:38:31.377Z,65.67
2018-10-19T11:40:59.976Z,65.57
2018-10-19T11:43:28.641Z,65.20
2018-10-19T11:45:57.165Z,66.86
2018-10-19T11:48:25.736Z,66.15
2018-10-19T11:50:54.649Z,66.20
2018-10-19T11:53:23.460Z,66.21
2018-10-19T11:55:52.085Z,65.25
2018-10-19T11:58:20.671Z,65.87
2018-10-19T12:00:49.252Z,65.75
2018-10-19T12:03:17.895Z,66.14
2018-10-19T12:05:46.736Z,64.88
2018-10-19T12:08:15.383Z,66.17
2018-10-19T12:10:44.008Z,66.53
2018-10-19T12:13:12.883Z,65.66
2018-10-19T12:15:41.476Z,66.55
2018-10-19T12:18:10.083Z,65.61
2018-10-19T12:20:38.935Z,65.58
2018-10-19T12:23:07.613Z,64.77
2018-10-19T12:25:36.197Z,64.53
2018-10-19T12:28:05.320Z,64.50
2018-10-19T12:30:33.996Z,65.42
2018-10-19T12:33:02.623Z,66.17
2018-10-19T12:35:31.224Z,65.37
2018-10-19T12:37:59.781Z,64.46
2018-10-19T12:40:28.403Z,64.96
2018-10-19T12:42:56.989Z,64.42
2018-10-19T12:46:37.029Z,64.78
2018-10-19T12:49:06.151Z,64.64
2018-10-19T12:51:35.142Z,64.48
2018-10-19T12:54:03.853Z,64.87
2018-10-19T12:56:32.373Z,64.05
2018-10-19T12:59:00.959Z,64.98
2018-10-19T13:01:30.448Z,64.76
2018-10-19T13:03:59.798Z,64.08
2018-10-19T13:06:28.406Z,64.79
2018-10-19T13:08:57.132Z,64.19
2018-10-19T13:11:26.090Z,64.11
2018-10-19T13:13:54.880Z,63.60
2018-10-19T13:16:23.680Z,62.73
2018-10-19T13:18:52.968Z,63.56
2018-10-19T13:21:21.566Z,63.80
2018-10-19T13:23:50.276Z,63.22
2018-10-19T13:26:18.852Z,62.83
2018-10-19T13:28:47.478Z,63.30
2018-10-19T13:31:16.028Z,62.93
2018-10-19T13:33:44.833Z,63.25
2018-10-19T13:36:13.541Z,63.50
2018-10-19T13:38:42.069Z,63.22
2018-10-19T13:41:10.790Z,63.25
2018-10-19T13:43:40.163Z,62.96
2018-10-19T13:46:08.707Z,63.27
2018-10-19T13:48:37.602Z,62.44
2018-10-19T13:51:06.714Z,63.05
2018-10-19T13:53:35.256Z,62.91
2018-10-19T13:56:03.897Z,63.76
2018-10-19T13:58:32.516Z,63.60
2018-10-19T14:01:01.045Z,63.08
2018-10-19T14:03:30.137Z,64.21
2018-10-19T14:05:58.804Z,63.55
2018-10-19T14:08:27.609Z,64.08
2018-10-19T14:10:56.424Z,63.93
2018-10-19T14:13:25.414Z,64.07
2018-10-19T14:15:54.415Z,64.52
2018-10-19T14:18:23.000Z,64.62
2018-10-19T14:20:51.608Z,64.50
2018-10-19T14:23:20.234Z,63.89
2018-10-19T14:25:48.780Z,63.77
2018-10-19T14:28:17.476Z,64.34
2018-10-19T14:30:46.124Z,63.88
2018-10-19T14:33:14.974Z,63.34
2018-10-19T14:35:43.476Z,63.97
2018-10-19T14:38:12.204Z,63.51
2018-10-19T14:40:40.840Z,63.29
2018-10-19T14:43:09.477Z,64.12
2018-10-19T14:45:38.137Z,64.29
2018-10-19T14:48:07.001Z,63.58
2018-10-19T14:50:35.677Z,64.26
2018-10-19T14:53:04.334Z,65.11
2018-10-19T14:55:33.088Z,64.27
2018-10-19T14:58:01.681Z,63.97
2018-10-19T15:00:30.448Z,63.73
2018-10-19T15:02:59.290Z,63.92
2018-10-19T15:05:27.929Z,63.84
2018-10-19T15:07:56.528Z,64.41
2018-10-19T15:10:25.461Z,64.91
2018-10-19T15:12:53.849Z,64.03
2018-10-19T15:15:23.485Z,64.18
2018-10-19T15:17:52.210Z,64.57
2018-10-19T15:20:20.753Z,64.06
2018-10-19T15:22:49.472Z,64.50
2018-10-19T15:25:18.133Z,64.65
2018-10-19T15:27:47.422Z,64.38
2018-10-19T15:30:17.780Z,64.66
2018-10-19T15:32:46.349Z,65.41
2018-10-19T15:35:14.936Z,64.91
2018-10-19T15:37:43.668Z,65.23
2018-10-19T15:40:12.612Z,65.25
2018-10-19T15:42:41.404Z,65.54
2018-10-19T15:45:12.025Z,65.77
2018-10-19T15:47:40.696Z,66.33
2018-10-19T15:50:09.761Z,65.57
2018-10-19T15:52:38.489Z,64.89
2018-10-19T15:55:07.864Z,66.30
2018-10-19T15:57:36.677Z,66.51
2018-10-19T16:00:05.696Z,67.72
2018-10-19T16:02:34.214Z,68.19
2018-10-19T16:05:02.788Z,67.64
2018-10-19T16:07:31.512Z,67.66
2018-10-19T16:10:00.102Z,68.80
2018-10-19T16:12:28.658Z,69.50
2018-10-19T16:14:57.368Z,70.40
2018-10-19T16:17:25.990Z,70.64
2018-10-19T16:19:54.526Z,70.42
2018-10-19T16:22:23.283Z,70.75
2018-10-19T16:24:51.805Z,72.20
2018-10-19T16:27:20.508Z,73.30
2018-10-19T16:29:50.040Z,73.02
2018-10-19T16:32:18.594Z,73.88
2018-10-19T16:34:47.145Z,73.85
2018-10-19T16:37:16.809Z,73.92
2018-10-19T16:39:45.712Z,74.14
2018-10-19T16:42:14.641Z,73.96
2018-10-19T16:44:44.654Z,75.04
2018-10-19T16:47:13.921Z,76.01
2018-10-19T16:49:42.471Z,75.91
2018-10-19T16:52:11.229Z,76.53
2018-10-19T16:54:39.764Z,76.41
2018-10-19T16:57:08.404Z,77.35
2018-10-19T16:59:37.163Z,77.85
2018-10-19T17:02:06.208Z,78.39
2018-10-19T17:04:34.803Z,77.89
2018-10-19T17:07:03.867Z,78.18
2018-10-19T17:09:32.521Z,77.72
2018-10-19T17:12:01.203Z,77.46
2018-10-19T17:14:29.792Z,78.43
2018-10-19T17:16:58.417Z,78.92
2018-10-19T17:19:27.058Z,79.76
2018-10-19T17:21:55.747Z,79.75
2018-10-19T17:24:24.496Z,79.07
2018-10-19T17:26:53.166Z,79.98
2018-10-19T17:29:22.141Z,80.89
2018-10-19T17:31:50.955Z,80.66
2018-10-19T17:34:19.598Z,80.89
2018-10-19T17:36:48.333Z,80.56
2018-10-19T17:39:17.040Z,81.25
2018-10-19T17:41:45.533Z,80.01
2018-10-19T17:44:14.224Z,79.43
2018-10-19T17:46:43.046Z,80.32
2018-10-19T17:49:11.664Z,80.78
2018-10-19T17:51:40.182Z,80.46
2018-10-19T17:54:08.817Z,81.08
2018-10-19T17:56:37.485Z,80.55
2018-10-19T17:59:06.235Z,81.17
2018-10-19T18:01:35.116Z,82.16
2018-10-19T18:04:03.804Z,81.80
2018-10-19T18:06:33.562Z,81.90
2018-10-19T18:09:02.140Z,81.94
2018-10-19T18:11:30.861Z,82.71
2018-10-19T18:13:59.397Z,82.13
2018-10-19T18:16:28.065Z,83.19
2018-10-19T18:18:56.692Z,84.00
2018-10-19T18:21:25.531Z,83.86
2018-10-19T18:23:54.176Z,82.87
2018-10-19T18:26:22.745Z,84.17
2018-10-19T18:28:51.533Z,82.54
2018-10-19T18:31:20.400Z,83.03
2018-10-19T18:33:48.926Z,84.07
2018-10-19T18:36:17.618Z,83.97
2018-10-19T18:38:46.155Z,84.20
2018-10-19T18:41:14.858Z,84.96
2018-10-19T18:43:43.635Z,84.60
2018-10-19T18:46:12.266Z,84.33
2018-10-19T18:48:40.942Z,85.25
2018-10-19T18:51:09.648Z,86.01
2018-10-19T18:53:38.745Z,85.47
2018-10-19T18:56:07.772Z,85.35
2018-10-19T18:58:36.830Z,85.28
2018-10-19T19:01:05.954Z,85.94
2018-10-19T19:03:35.185Z,85.84
2018-10-19T19:06:04.262Z,84.98
2018-10-19T19:08:33.264Z,86.78
2018-10-19T19:11:02.648Z,87.52
2018-10-19T19:13:32.785Z,86.91
2018-10-19T19:16:02.348Z,87.31
2018-10-19T19:18:31.475Z,86.80
2018-10-19T19:21:00.614Z,86.84
2018-10-19T19:23:29.775Z,86.40
2018-10-19T19:26:04.070Z,87.17
2018-10-19T19:28:33.140Z,87.50
2018-10-19T19:31:02.533Z,87.05
2018-10-19T19:33:36.812Z,87.51
2018-10-19T19:36:06.194Z,86.56
2018-10-19T19:38:35.282Z,88.75
2018-10-19T19:41:09.518Z,88.88
2018-10-19T19:43:38.417Z,89.02
2018-10-19T19:46:07.466Z,88.99
2018-10-19T19:48:41.650Z,88.65
2018-10-19T19:51:14.688Z,89.82
2018-10-19T19:53:43.936Z,89.64
2018-10-19T19:56:13.396Z,89.55
2018-10-19T19:58:42.321Z,89.46
2018-10-19T20:01:11.809Z,90.48
2018-10-19T20:03:40.789Z,89.62
2018-10-19T20:06:10.070Z,89.63
2018-10-19T20:08:39.601Z,90.06
2018-10-19T20:11:09.156Z,90.44
2018-10-19T20:13:38.666Z,91.81
2018-10-19T20:16:07.724Z,90.91
2018-10-19T20:18:36.712Z,89.52
2018-10-19T20:21:06.131Z,91.36
2018-10-19T20:23:35.151Z,92.03
2018-10-19T20:26:03.953Z,90.47
2018-10-19T20:28:32.917Z,90.85
2018-10-19T20:31:01.777Z,91.27
2018-10-19T20:33:30.404Z,90.61
2018-10-19T20:35:59.117Z,91.23
2018-10-19T20:38:27.811Z,90.70
2018-10-19T20:40:56.564Z,91.25
2018-10-19T20:43:25.189Z,90.17
2018-10-19T20:45:53.755Z,92.35
2018-10-19T20:48:22.574Z,92.24
2018-10-19T20:50:51.317Z,91.04
2018-10-19T20:53:19.865Z,90.86
2018-10-19T20:55:48.533Z,90.70
2018-10-19T20:58:17.176Z,90.90
2018-10-19T21:00:45.806Z,91.00
2018-10-19T21:03:14.611Z,92.53
2018-10-19T21:05:43.305Z,93.33
2018-10-19T21:08:11.904Z,93.73
2018-10-19T21:10:40.510Z,93.86
2018-10-19T21:13:09.165Z,94.27
2018-10-19T21:15:37.745Z,93.91
2018-10-19T21:18:06.637Z,92.30
2018-10-19T21:20:35.284Z,91.81
2018-10-19T21:23:03.883Z,92.50
2018-10-19T21:25:32.468Z,91.42
2018-10-19T21:28:01.284Z,91.03
2018-10-19T21:30:29.870Z,92.20
2018-10-19T21:32:58.466Z,91.99
2018-10-19T21:35:27.065Z,92.97
2018-10-19T21:37:55.620Z,94.17
2018-10-19T21:40:24.333Z,94.13
2018-10-19T21:42:53.018Z,94.01
2018-10-19T21:45:21.876Z,92.76
2018-10-19T21:47:50.706Z,91.70
2018-10-19T21:50:22.025Z,92.54
2018-10-19T21:52:52.213Z,93.46
2018-10-19T21:55:20.793Z,94.30
2018-10-19T21:57:49.464Z,93.36
2018-10-19T22:00:18.046Z,93.03
2018-10-19T22:02:46.692Z,92.83
2018-10-19T22:05:15.327Z,92.43
2018-10-19T22:07:43.914Z,92.31
2018-10-19T22:10:12.844Z,92.11
2018-10-19T22:12:41.572Z,91.29
2018-10-19T22:15:10.639Z,90.85
2018-10-19T22:17:39.217Z,91.64
2018-10-19T22:20:08.572Z,90.95
2018-10-19T22:22:37.438Z,90.95
2018-10-19T22:25:07.403Z,91.30
2018-10-19T22:27:35.973Z,91.78
2018-10-19T22:30:04.956Z,92.83
2018-10-19T22:32:33.558Z,92.79
2018-10-19T22:35:02.251Z,92.19
2018-10-19T22:37:30.861Z,91.60
2018-10-19T22:39:59.401Z,92.27
2018-10-19T22:42:28.097Z,92.33
2018-10-19T22:44:56.650Z,92.33
2018-10-19T22:47:25.185Z,91.76
2018-10-19T22:49:54.078Z,92.24
2018-10-19T22:52:22.645Z,92.65
2018-10-19T22:54:51.160Z,92.52
2018-10-19T22:57:19.745Z,91.98
2018-10-19T22:59:48.306Z,92.24
2018-10-19T23:02:16.919Z,92.37
2018-10-19T23:04:45.525Z,92.95
2018-10-19T23:07:14.155Z,93.45
2018-10-19T23:09:42.722Z,93.68
2018-10-19T23:12:11.335Z,93.03
2018-10-19T23:14:39.883Z,93.32
2018-10-19T23:17:08.477Z,93.22
2018-10-19T23:19:36.993Z,92.18
2018-10-19T23:22:05.832Z,92.80
2018-10-19T23:24:34.448Z,92.80
2018-10-19T23:27:03.097Z,91.87
2018-10-19T23:29:31.672Z,91.46
2018-10-19T23:32:00.273Z,91.74
2018-10-19T23:34:28.937Z,91.70
2018-10-19T23:36:57.598Z,91.22
2018-10-19T23:39:26.144Z,91.49
2018-10-19T23:41:54.769Z,92.86
2018-10-19T23:44:23.381Z,91.89
2018-10-19T23:46:52.305Z,91.86
2018-10-19T23:49:20.898Z,92.17
2018-10-19T23:51:49.553Z,93.09
2018-10-19T23:54:18.153Z,93.95
2018-10-19T23:56:46.796Z,94.42
2018-10-19T23:59:15.487Z,94.29
